createdAt,value
2023-03-10T00:01:13.216Z,37.20
2023-03-10T00:03:39.872Z,37.60
2023-03-10T00:06:06.970Z,34.90
2023-03-10T00:08:33.710Z,39.10
2023-03-10T00:11:00.149Z,38.00
2023-03-10T00:13:26.707Z,39.10
2023-03-10T00:15:53.181Z,39.70
2023-03-10T00:18:19.654Z,39.20
2023-03-10T00:20:46.061Z,36.90
2023-03-10T00:23:12.475Z,39.20
2023-03-10T00:25:39.039Z,39.20
2023-03-10T00:28:05.463Z,38.00
2023-03-10T00:30:34.637Z,38.30
2023-03-10T00:33:01.705Z,41.40
2023-03-10T00:35:28.247Z,38.00
2023-03-10T00:38:02.032Z,39.80
2023-03-10T00:40:29.363Z,40.20
2023-03-10T00:42:55.855Z,41.30
2023-03-10T00:45:22.541Z,37.70
2023-03-10T00:47:48.960Z,39.70
2023-03-10T00:50:15.491Z,38.50
2023-03-10T00:52:41.961Z,39.60
2023-03-10T00:55:08.504Z,41.80
2023-03-10T00:57:35.164Z,40.80
2023-03-10T01:00:01.830Z,40.80
2023-03-10T01:02:28.712Z,40.00
2023-03-10T01:04:55.174Z,40.30
2023-03-10T01:07:21.860Z,41.20
2023-03-10T01:09:48.589Z,39.30
2023-03-10T01:12:15.061Z,40.80
2023-03-10T01:14:41.491Z,42.20
2023-03-10T01:17:08.086Z,42.50
2023-03-10T01:19:34.571Z,40.40
2023-03-10T01:22:01.084Z,41.20
2023-03-10T01:24:27.491Z,39.20
2023-03-10T01:26:53.970Z,41.80
2023-03-10T01:29:20.424Z,40.90
2023-03-10T01:31:46.869Z,39.70
2023-03-10T01:34:13.399Z,41.80
2023-03-10T01:36:40.982Z,41.50
2023-03-10T01:39:07.411Z,43.10
2023-03-10T01:41:37.131Z,44.40
2023-03-10T01:44:04.276Z,41.60
2023-03-10T01:46:30.774Z,41.10
2023-03-10T01:49:00.145Z,41.80
2023-03-10T01:51:27.200Z,41.50
2023-03-10T01:53:53.859Z,43.20
2023-03-10T01:56:20.335Z,43.70
2023-03-10T01:58:46.887Z,42.60
2023-03-10T02:01:14.132Z,42.80
2023-03-10T02:03:43.584Z,44.20
2023-03-10T02:06:11.132Z,42.10
2023-03-10T02:08:39.402Z,42.80
2023-03-10T02:11:06.690Z,40.80
2023-03-10T02:13:33.108Z,41.70
2023-03-10T02:18:46.491Z,42.80
2023-03-10T02:21:19.388Z,41.90
2023-03-10T02:24:21.547Z,40.10
2023-03-10T02:27:06.817Z,42.30
2023-03-10T02:29:58.034Z,41.30
2023-03-10T02:32:26.251Z,43.10
2023-03-10T02:34:52.844Z,44.60
2023-03-10T02:37:21.150Z,43.00
2023-03-10T02:39:47.590Z,40.70
2023-03-10T02:42:14.614Z,42.60
2023-03-10T02:44:41.686Z,43.60
2023-03-10T02:47:08.149Z,44.50
2023-03-10T02:49:35.542Z,42.10
2023-03-10T02:52:08.110Z,42.70
2023-03-10T02:54:35.909Z,41.40
2023-03-10T02:57:02.562Z,42.50
2023-03-10T02:59:28.941Z,42.60
2023-03-10T03:01:55.406Z,43.30
2023-03-10T03:04:21.833Z,43.40
2023-03-10T03:06:48.277Z,41.40
2023-03-10T03:09:14.977Z,41.60
2023-03-10T03:11:41.414Z,52.50
2023-03-10T03:14:07.974Z,48.10
2023-03-10T03:16:34.513Z,45.20
2023-03-10T03:19:00.938Z,52.20
2023-03-10T03:21:27.404Z,53.00
2023-03-10T03:23:53.911Z,50.70
2023-03-10T03:26:21.629Z,47.20
2023-03-10T03:28:48.445Z,41.60
2023-03-10T03:31:20.525Z,41.30
2023-03-10T03:33:47.517Z,42.00
2023-03-10T03:36:15.013Z,39.80
2023-03-10T03:38:41.775Z,39.60
2023-03-10T03:41:08.610Z,38.40
2023-03-10T03:43:35.172Z,39.60
2023-03-10T03:46:01.771Z,40.80
2023-03-10T03:48:28.352Z,42.60
2023-03-10T03:50:55.032Z,42.20
2023-03-10T03:53:21.465Z,40.90
2023-03-10T03:55:48.912Z,42.30
2023-03-10T03:58:15.265Z,41.90
2023-03-10T04:00:41.774Z,41.20
2023-03-10T04:03:08.934Z,40.20
2023-03-10T04:05:35.788Z,42.30
2023-03-10T04:08:02.378Z,43.30
2023-03-10T04:10:28.935Z,42.30
2023-03-10T04:12:56.749Z,42.40
2023-03-10T04:15:23.508Z,42.60
2023-03-10T04:17:50.186Z,40.70
2023-03-10T04:20:17.659Z,44.50
2023-03-10T04:22:44.679Z,43.90
2023-03-10T04:25:11.233Z,42.20
2023-03-10T04:27:37.849Z,42.50
2023-03-10T04:30:04.648Z,43.70
2023-03-10T04:32:31.865Z,44.10
2023-03-10T04:34:58.274Z,47.30
2023-03-10T04:37:26.032Z,42.80
2023-03-10T04:39:52.606Z,44.80
2023-03-10T04:42:19.108Z,42.70
2023-03-10T04:44:46.477Z,41.60
2023-03-10T04:47:13.225Z,43.00
2023-03-10T04:49:39.732Z,43.60
2023-03-10T04:52:06.364Z,41.00
2023-03-10T04:54:33.392Z,42.60
2023-03-10T04:56:59.918Z,44.20
2023-03-10T04:59:26.317Z,44.90
2023-03-10T05:01:53.289Z,42.70
2023-03-10T05:04:20.002Z,42.50
2023-03-10T05:06:49.376Z,43.10
2023-03-10T05:09:16.541Z,44.90
2023-03-10T05:11:42.951Z,48.80
2023-03-10T05:14:10.593Z,51.80
2023-03-10T05:16:37.067Z,52.90
2023-03-10T05:19:03.690Z,45.60
2023-03-10T05:21:30.149Z,44.90
2023-03-10T05:23:56.570Z,47.20
2023-03-10T05:26:23.100Z,50.70
2023-03-10T05:28:49.837Z,53.90
2023-03-10T05:31:25.340Z,51.10
2023-03-10T05:33:54.904Z,53.30
2023-03-10T05:36:21.728Z,59.20
2023-03-10T05:38:48.525Z,59.00
2023-03-10T05:41:15.152Z,69.30
2023-03-10T05:43:41.619Z,65.80
2023-03-10T05:46:08.084Z,59.80
2023-03-10T05:48:34.843Z,59.10
2023-03-10T05:51:01.370Z,57.90
2023-03-10T05:53:28.838Z,55.90
2023-03-10T05:56:05.493Z,52.90
2023-03-10T05:58:38.114Z,49.10
2023-03-10T06:01:05.456Z,54.20
2023-03-10T06:03:32.701Z,51.80
2023-03-10T06:05:59.888Z,54.40
2023-03-10T06:08:29.919Z,54.90
2023-03-10T06:10:57.402Z,55.20
2023-03-10T06:13:24.341Z,55.10
2023-03-10T06:15:52.270Z,55.90
2023-03-10T06:18:19.071Z,56.70
2023-03-10T06:20:47.335Z,56.80
2023-03-10T06:23:17.542Z,54.00
2023-03-10T06:25:44.391Z,53.70
2023-03-10T06:28:11.410Z,53.00
2023-03-10T06:30:38.096Z,55.30
2023-03-10T06:33:04.638Z,53.20
2023-03-10T06:35:31.437Z,58.10
2023-03-10T06:37:57.967Z,63.80
2023-03-10T06:40:24.393Z,61.30
2023-03-10T06:42:51.053Z,68.70
2023-03-10T06:45:17.933Z,66.70
2023-03-10T06:47:44.676Z,66.80
2023-03-10T06:50:12.335Z,70.00
2023-03-10T06:52:39.060Z,72.70
2023-03-10T06:55:06.183Z,75.60
2023-03-10T06:57:33.395Z,74.50
2023-03-10T07:00:00.013Z,77.80
2023-03-10T07:02:26.604Z,78.20
2023-03-10T07:04:53.359Z,68.80
2023-03-10T07:07:20.011Z,68.80
2023-03-10T07:09:46.543Z,61.30
2023-03-10T07:12:13.020Z,58.80
2023-03-10T07:14:39.551Z,55.20
2023-03-10T07:17:06.176Z,58.30
2023-03-10T07:19:33.068Z,57.70
2023-03-10T07:21:59.562Z,64.60
2023-03-10T07:24:26.795Z,69.50
2023-03-10T07:26:53.761Z,73.80
2023-03-10T07:29:21.052Z,69.70
2023-03-10T07:31:47.582Z,64.60
2023-03-10T07:34:14.086Z,59.10
2023-03-10T07:37:25.674Z,62.90
2023-03-10T07:39:55.883Z,49.60
2023-03-10T07:42:22.478Z,62.70
2023-03-10T07:44:49.395Z,59.10
2023-03-10T07:47:16.796Z,59.10
2023-03-10T07:49:46.722Z,61.80
2023-03-10T07:52:14.653Z,61.90
2023-03-10T07:54:41.346Z,58.00
2023-03-10T07:57:08.335Z,55.60
2023-03-10T07:59:34.770Z,52.90
2023-03-10T08:02:01.469Z,48.00
2023-03-10T08:04:31.638Z,34.20
2023-03-10T08:07:02.567Z,20.20
2023-03-10T08:09:29.812Z,12.20
2023-03-10T08:11:59.956Z,11.90
2023-03-10T08:14:30.561Z,11.10
2023-03-10T08:16:57.765Z,9.80
2023-03-10T08:19:25.243Z,8.70
2023-03-10T08:21:53.935Z,8.10
2023-03-10T08:24:20.538Z,6.60
2023-03-10T08:26:47.296Z,6.30
2023-03-10T08:29:14.095Z,5.70
2023-03-10T08:31:41.227Z,6.00
2023-03-10T08:34:07.748Z,5.90
2023-03-10T08:36:34.450Z,6.00
2023-03-10T08:39:01.647Z,5.80
2023-03-10T08:41:28.442Z,6.30
2023-03-10T08:43:56.242Z,6.70
2023-03-10T08:46:24.276Z,5.70
2023-03-10T08:48:51.379Z,5.20
2023-03-10T08:51:18.540Z,6.10
2023-03-10T08:53:46.860Z,5.70
2023-03-10T08:56:14.652Z,5.90
2023-03-10T08:58:41.556Z,6.40
2023-03-10T09:01:08.372Z,5.80
2023-03-10T09:03:36.598Z,5.00
2023-03-10T09:06:03.364Z,5.20
2023-03-10T09:08:29.984Z,6.00
2023-03-10T09:10:56.745Z,5.60
2023-03-10T09:13:23.663Z,6.00
2023-03-10T09:15:51.223Z,5.00
2023-03-10T09:20:50.954Z,4.70
2023-03-10T09:23:18.966Z,4.00
2023-03-10T09:25:47.319Z,5.10
2023-03-10T09:28:17.466Z,5.00
2023-03-10T09:30:48.404Z,4.60
2023-03-10T09:33:18.013Z,4.80
2023-03-10T09:35:52.824Z,4.30
2023-03-10T09:38:31.351Z,4.50
2023-03-10T09:41:19.226Z,4.20
2023-03-10T09:43:52.349Z,4.70
2023-03-10T09:46:48.617Z,4.30
2023-03-10T09:49:24.069Z,4.20
2023-03-10T09:51:52.195Z,4.10
2023-03-10T09:54:42.284Z,3.80
2023-03-10T09:57:16.321Z,3.90
2023-03-10T09:59:46.105Z,3.80
2023-03-10T10:02:25.020Z,3.40
2023-03-10T10:04:53.897Z,4.40
2023-03-10T10:07:24.224Z,3.50
2023-03-10T10:09:58.491Z,3.80
2023-03-10T10:12:26.792Z,3.50
2023-03-10T10:15:18.095Z,3.40
2023-03-10T10:17:56.435Z,3.80
2023-03-10T10:20:29.241Z,3.00
2023-03-10T10:22:57.252Z,2.40
2023-03-10T10:25:26.264Z,2.40
2023-03-10T10:27:56.288Z,2.20
2023-03-10T10:30:40.942Z,2.50
2023-03-10T10:33:10.592Z,2.20
2023-03-10T10:35:55.568Z,1.80
2023-03-10T10:38:25.986Z,1.80
2023-03-10T10:40:57.218Z,1.90
2023-03-10T10:43:25.925Z,1.40
2023-03-10T10:45:56.318Z,1.50
2023-03-10T10:48:33.529Z,1.60
2023-03-10T10:51:01.566Z,1.20
2023-03-10T10:53:34.413Z,1.30
2023-03-10T10:56:05.104Z,1.60
2023-03-10T10:58:33.775Z,1.60
2023-03-10T11:01:06.535Z,1.50
2023-03-10T11:03:37.013Z,2.30
2023-03-10T11:06:24.704Z,1.50
2023-03-10T11:09:03.044Z,1.60
2023-03-10T11:12:00.957Z,1.50
2023-03-10T11:14:34.760Z,1.40
2023-03-10T11:17:05.959Z,1.40
2023-03-10T11:19:53.046Z,1.60
2023-03-10T11:22:21.045Z,1.40
2023-03-10T11:24:52.432Z,1.30
2023-03-10T11:27:20.368Z,1.40
2023-03-10T11:30:08.116Z,1.40
2023-03-10T11:32:45.985Z,1.20
2023-03-10T11:35:34.218Z,1.60
2023-03-10T11:38:14.198Z,1.20
2023-03-10T11:40:44.711Z,1.40
2023-03-10T11:43:39.286Z,1.90
2023-03-10T11:46:18.835Z,1.30
2023-03-10T11:48:46.856Z,1.70
2023-03-10T11:51:19.556Z,1.60
2023-03-10T11:53:59.159Z,1.10
2023-03-10T11:56:28.278Z,1.50
2023-03-10T11:59:05.616Z,1.40
2023-03-10T12:01:38.738Z,1.40
2023-03-10T12:04:13.706Z,1.10
2023-03-10T12:06:52.598Z,1.10
2023-03-10T12:09:36.193Z,1.50
2023-03-10T12:12:05.483Z,1.40
2023-03-10T12:14:35.036Z,1.00
2023-03-10T12:17:05.192Z,1.00
2023-03-10T12:19:53.761Z,1.20
2023-03-10T12:22:22.048Z,1.30
2023-03-10T12:24:51.101Z,1.80
2023-03-10T12:27:19.441Z,1.20
2023-03-10T12:29:47.698Z,1.30
2023-03-10T12:32:34.207Z,1.10
2023-03-10T12:35:22.047Z,1.00
2023-03-10T12:37:50.183Z,1.00
2023-03-10T12:40:36.927Z,1.10
2023-03-10T12:43:28.143Z,0.80
2023-03-10T12:45:58.523Z,1.00
2023-03-10T12:48:27.102Z,1.30
2023-03-10T12:50:58.738Z,0.90
2023-03-10T12:53:53.298Z,1.30
2023-03-10T12:56:31.293Z,1.20
2023-03-10T12:59:05.091Z,1.20
2023-03-10T13:01:40.564Z,1.10
2023-03-10T13:04:13.654Z,1.10
2023-03-10T13:06:41.965Z,1.10
2023-03-10T13:09:21.158Z,1.30
2023-03-10T13:12:12.695Z,1.10
2023-03-10T13:14:41.642Z,1.40
2023-03-10T13:17:24.006Z,2.20
2023-03-10T13:20:11.481Z,1.80
2023-03-10T13:22:39.884Z,1.80
2023-03-10T13:25:09.761Z,1.90
2023-03-10T13:27:37.747Z,2.10
2023-03-10T13:30:06.028Z,1.50
2023-03-10T13:32:34.327Z,2.20
2023-03-10T13:35:37.619Z,2.10
2023-03-10T13:38:13.564Z,2.20
2023-03-10T13:41:02.353Z,3.10
2023-03-10T13:43:37.366Z,1.90
2023-03-10T13:46:10.597Z,2.30
2023-03-10T13:48:39.813Z,2.20
2023-03-10T13:51:15.780Z,2.20
2023-03-10T13:53:44.390Z,2.90
2023-03-10T13:56:26.090Z,3.60
2023-03-10T13:58:55.968Z,3.50
2023-03-10T14:01:25.659Z,3.80
2023-03-10T14:03:58.084Z,4.30
2023-03-10T14:06:26.958Z,5.20
2023-03-10T14:08:55.124Z,4.30
2023-03-10T14:11:39.032Z,4.20
2023-03-10T14:14:08.678Z,4.60
2023-03-10T14:16:47.791Z,3.90
2023-03-10T14:19:35.729Z,4.30
2023-03-10T14:22:03.714Z,3.30
2023-03-10T14:24:32.022Z,3.50
2023-03-10T14:28:31.752Z,3.10
2023-03-10T14:31:04.874Z,3.30
2023-03-10T14:33:33.005Z,3.10
2023-03-10T14:36:00.881Z,2.40
2023-03-10T14:38:28.805Z,1.60
2023-03-10T14:40:56.754Z,1.30
2023-03-10T14:43:26.407Z,1.10
2023-03-10T14:45:56.733Z,0.90
2023-03-10T14:53:53.726Z,1.30
2023-03-10T14:56:21.956Z,1.20
2023-03-10T14:58:50.845Z,2.40
2023-03-10T15:01:20.078Z,2.50
2023-03-10T15:03:49.389Z,2.10
2023-03-10T15:06:18.589Z,2.30
2023-03-10T15:08:46.687Z,2.30
2023-03-10T15:11:17.476Z,2.10
2023-03-10T15:13:49.513Z,2.20
2023-03-10T15:16:17.478Z,2.20
2023-03-10T15:18:47.331Z,2.30
2023-03-10T15:21:16.225Z,2.80
2023-03-10T15:23:44.454Z,2.40
2023-03-10T15:26:12.975Z,2.90
2023-03-10T15:28:40.813Z,2.40
2023-03-10T15:38:39.445Z,3.00
2023-03-10T15:41:07.695Z,2.70
2023-03-10T15:43:35.756Z,3.00
2023-03-10T15:46:08.069Z,3.00
2023-03-10T15:48:36.155Z,2.80
2023-03-10T15:51:09.646Z,3.00
2023-03-10T15:53:54.814Z,2.90
2023-03-10T15:56:22.688Z,3.20
2023-03-10T15:58:51.385Z,3.50
2023-03-10T16:01:21.025Z,4.00
2023-03-10T16:03:49.206Z,4.20
2023-03-10T16:06:17.199Z,4.40
2023-03-10T16:08:45.208Z,4.30
2023-03-10T16:11:20.554Z,5.60
2023-03-10T16:13:49.837Z,6.40
2023-03-10T16:16:18.886Z,6.70
2023-03-10T16:18:46.985Z,8.60
2023-03-10T16:21:17.927Z,8.30
2023-03-10T16:23:46.648Z,9.90
2023-03-10T16:26:16.355Z,10.20
2023-03-10T16:28:45.547Z,8.80
2023-03-10T16:31:14.542Z,9.00
2023-03-10T16:33:43.008Z,10.50
2023-03-10T16:36:13.473Z,11.00
2023-03-10T16:38:41.652Z,11.70
2023-03-10T16:41:10.694Z,12.80
2023-03-10T16:43:39.549Z,11.60
2023-03-10T16:46:07.698Z,13.20
2023-03-10T16:48:42.332Z,10.70
2023-03-10T16:51:23.096Z,10.30
2023-03-10T16:53:52.113Z,10.70
2023-03-10T16:56:20.798Z,11.20
2023-03-10T16:58:48.708Z,11.70
2023-03-10T17:01:16.825Z,11.70
2023-03-10T17:03:44.904Z,10.70
2023-03-10T17:06:14.092Z,11.80
2023-03-10T17:08:42.468Z,11.80
2023-03-10T17:11:21.197Z,12.40
2023-03-10T17:13:51.829Z,12.90
2023-03-10T17:16:21.313Z,12.60
2023-03-10T17:18:49.898Z,11.20
2023-03-10T17:21:19.934Z,11.80
2023-03-10T17:23:48.914Z,11.30
2023-03-10T17:26:17.911Z,10.10
2023-03-10T17:28:47.818Z,11.30
2023-03-10T17:31:21.520Z,10.90
2023-03-10T17:33:49.896Z,12.10
2023-03-10T17:36:18.795Z,19.50
2023-03-10T17:38:46.824Z,33.40
2023-03-10T17:41:16.007Z,23.40
2023-03-10T17:43:44.411Z,20.90
2023-03-10T17:46:14.518Z,20.40
2023-03-10T17:48:42.936Z,15.60
2023-03-10T17:51:14.717Z,18.20
2023-03-10T17:53:43.443Z,35.40
2023-03-10T17:56:11.630Z,98.00
2023-03-10T17:58:39.925Z,53.60
2023-03-10T18:01:08.023Z,66.50
2023-03-10T18:03:37.148Z,78.90
2023-03-10T18:06:05.347Z,77.80
2023-03-10T18:08:33.520Z,81.00
2023-03-10T18:11:02.974Z,87.20
2023-03-10T18:13:31.574Z,78.70
2023-03-10T18:15:59.537Z,63.30
2023-03-10T18:18:27.757Z,57.90
2023-03-10T18:20:55.726Z,51.90
2023-03-10T18:23:24.020Z,50.50
2023-03-10T18:25:52.111Z,47.70
2023-03-10T18:28:20.579Z,51.00
2023-03-10T18:30:50.033Z,44.20
2023-03-10T18:33:18.090Z,46.60
2023-03-10T18:35:46.916Z,50.20
2023-03-10T18:38:16.262Z,46.70
2023-03-10T18:40:44.459Z,49.60
2023-03-10T18:43:12.984Z,50.10
2023-03-10T18:45:44.012Z,51.20
2023-03-10T18:48:12.231Z,46.70
2023-03-10T18:50:40.199Z,48.80
2023-03-10T18:53:08.234Z,58.00
2023-03-10T18:55:36.548Z,60.70
2023-03-10T18:58:05.034Z,53.00
2023-03-10T19:00:33.308Z,50.00
2023-03-10T19:03:01.238Z,53.90
2023-03-10T19:05:29.375Z,30.10
2023-03-10T19:07:57.331Z,25.40
2023-03-10T19:10:25.495Z,16.80
2023-03-10T19:12:53.938Z,11.80
2023-03-10T19:15:22.155Z,9.60
2023-03-10T19:17:50.060Z,5.90
2023-03-10T19:20:18.256Z,6.10
2023-03-10T19:22:49.693Z,6.70
2023-03-10T19:25:18.800Z,7.50
2023-03-10T19:27:49.055Z,8.90
2023-03-10T19:30:20.266Z,10.40
2023-03-10T19:32:48.678Z,9.50
2023-03-10T19:35:31.498Z,11.80
2023-03-10T19:38:01.217Z,13.50
2023-03-10T19:40:29.378Z,15.90
2023-03-10T19:42:58.230Z,19.60
2023-03-10T19:45:26.672Z,21.00
2023-03-10T19:47:55.184Z,18.40
2023-03-10T19:50:23.971Z,17.70
2023-03-10T19:52:51.972Z,19.10
2023-03-10T19:55:29.845Z,18.60
2023-03-10T19:58:14.828Z,16.60
2023-03-10T20:00:44.452Z,17.70
2023-03-10T20:03:13.775Z,17.40
2023-03-10T20:05:44.540Z,16.20
2023-03-10T20:08:13.150Z,21.60
2023-03-10T20:10:45.033Z,16.70
2023-03-10T20:13:16.514Z,15.00
2023-03-10T20:15:44.810Z,15.90
2023-03-10T20:18:13.088Z,16.90
2023-03-10T20:20:41.559Z,14.60
2023-03-10T20:23:12.916Z,15.40
2023-03-10T20:25:41.095Z,14.40
2023-03-10T20:28:09.314Z,15.10
2023-03-10T20:30:37.652Z,15.10
2023-03-10T20:33:05.659Z,15.10
2023-03-10T20:35:34.310Z,15.50
2023-03-10T20:38:02.356Z,14.80
2023-03-10T20:40:30.428Z,16.00
2023-03-10T20:42:59.857Z,19.60
2023-03-10T20:45:28.036Z,17.80
2023-03-10T20:47:56.504Z,16.50
2023-03-10T20:50:25.190Z,16.50
2023-03-10T20:52:53.492Z,17.10
2023-03-10T20:55:23.247Z,15.10
2023-03-10T20:57:52.054Z,14.50
2023-03-10T21:00:20.957Z,13.70
2023-03-10T21:02:49.523Z,13.50
2023-03-10T21:05:18.744Z,11.00
2023-03-10T21:07:47.397Z,11.10
2023-03-10T21:10:15.739Z,9.20
2023-03-10T21:12:44.284Z,9.70
2023-03-10T21:15:13.947Z,9.50
2023-03-10T21:17:42.056Z,9.20
2023-03-10T21:20:10.738Z,8.40
2023-03-10T21:22:40.056Z,8.70
2023-03-10T21:25:09.872Z,8.60
2023-03-10T21:27:39.188Z,7.70
2023-03-10T21:30:10.505Z,8.00
2023-03-10T21:32:38.774Z,8.20
2023-03-10T21:35:07.290Z,8.60
2023-03-10T21:37:37.878Z,8.30
2023-03-10T21:40:09.656Z,7.50
2023-03-10T21:42:42.379Z,7.00
2023-03-10T21:45:15.750Z,6.40
2023-03-10T21:47:48.688Z,6.60
2023-03-10T21:50:16.858Z,5.60
2023-03-10T21:52:45.343Z,5.70
2023-03-10T21:55:21.701Z,5.70
2023-03-10T21:57:50.386Z,5.30
2023-03-10T22:00:20.009Z,5.00
2023-03-10T22:02:49.350Z,5.10
2023-03-10T22:05:19.562Z,5.30
2023-03-10T22:07:49.559Z,5.00
2023-03-10T22:10:19.355Z,5.40
2023-03-10T22:12:50.643Z,5.50
2023-03-10T22:15:20.722Z,5.20
2023-03-10T22:17:50.570Z,5.30
2023-03-10T22:20:20.952Z,5.40
2023-03-10T22:22:49.916Z,5.30
2023-03-10T22:25:21.016Z,4.90
2023-03-10T22:27:54.840Z,5.70
2023-03-10T22:30:25.881Z,5.30
2023-03-10T22:32:54.966Z,5.50
2023-03-10T22:35:23.762Z,5.50
2023-03-10T22:37:52.235Z,4.90
2023-03-10T22:40:22.632Z,5.20
2023-03-10T22:42:51.124Z,5.30
2023-03-10T22:45:27.670Z,6.30
2023-03-10T22:47:57.188Z,5.20
2023-03-10T22:50:29.918Z,5.40
2023-03-10T22:53:02.955Z,5.50
2023-03-10T22:55:37.455Z,5.20
2023-03-10T22:58:07.501Z,5.60
2023-03-10T23:00:36.262Z,5.40
2023-03-10T23:03:05.142Z,5.40
2023-03-10T23:05:34.032Z,6.00
2023-03-10T23:08:02.178Z,6.40
2023-03-10T23:10:31.586Z,6.80
2023-03-10T23:13:01.242Z,6.00
2023-03-10T23:15:31.900Z,5.60
2023-03-10T23:18:00.170Z,7.60
2023-03-10T23:20:29.634Z,6.20
2023-03-10T23:22:59.054Z,6.10
2023-03-10T23:25:29.772Z,6.30
2023-03-10T23:27:59.286Z,6.80
2023-03-10T23:30:28.164Z,6.90
2023-03-10T23:32:56.828Z,6.60
2023-03-10T23:35:27.274Z,6.90
2023-03-10T23:37:55.529Z,6.20
2023-03-10T23:40:24.977Z,6.00
2023-03-10T23:42:57.031Z,6.70
2023-03-10T23:45:26.036Z,6.50
2023-03-10T23:47:55.797Z,5.40
2023-03-10T23:50:31.240Z,6.30
2023-03-10T23:52:59.495Z,5.70
2023-03-10T23:55:28.617Z,5.10
2023-03-10T23:57:56.757Z,4.70
